Zim Chicago — A8SI9 — position and weather

sailwx.info

Track history (hours):
 
Tides and Currents Weather Stations Pressure Air Temp Water Temp Dewpoint Dewpoint Depression Visibility Wind Speed Wind Dir Waves Ship Positions

Zim Chicago

Last reported at 2015-Jan-27 10:23 UTC. Time now 2015-Jan-29 00:15 UTC.
Position N 01°48' E 102°32'.

Length 334 m; draft 11.4 m.

Type: Cargo ship. MMSI: 636014223.

Date/timePositionNaut miles runAvg speedWind from/ knotsBaromVisibWave heightAir tempDewpointWater temp
2015-Jan-27 10:23N 01°48' E 102°32'1312.8
2015-Jan-27 09:22N 01°42' E 102°44'7012.0
2015-Jan-27 03:33N 01°09' E 103°45'1414.5
2015-Jan-27 02:33N 01°15' E 103°59'1616.1
2015-Jan-27 01:33N 01°18' E 104°15'  
2015-Jan-23 15:33N 22°05' E 114°21'11 1.9
2015-Jan-23 09:31N 22°10' E 114°10'0 0.0
2015-Jan-23 08:07N 22°10' E 114°10'0 0.0
2015-Jan-23 06:25N 22°10' E 114°10'0 0.0
2015-Jan-23 04:25N 22°10' E 114°10'3 2.9
2015-Jan-23 03:29N 22°13' E 114°10'1110.8
2015-Jan-23 02:28N 22°21' E 114°02'1010.6
2015-Jan-23 01:33N 22°26' E 113°53'7 6.8
2015-Jan-23 00:33N 22°32' E 113°51'0 0.1
2015-Jan-22 23:19N 22°32' E 113°51'0 0.0
2015-Jan-22 22:13N 22°32' E 113°51'0 0.0
2015-Jan-22 18:25N 22°32' E 113°51'0 0.0
2015-Jan-22 14:31N 22°32' E 113°51'0 0.0
2015-Jan-22 13:25N 22°32' E 113°51'0 0.0
2015-Jan-22 12:07N 22°32' E 113°51'0 0.0
2015-Jan-22 11:32N 22°32' E 113°51'0 0.0
2015-Jan-22 10:25N 22°32' E 113°51'0 0.0
2015-Jan-22 08:13N 22°32' E 113°51'0 0.0
2015-Jan-22 07:25N 22°32' E 113°51'0 0.0
2015-Jan-22 06:31N 22°32' E 113°51'0 0.0
2015-Jan-22 04:31N 22°32' E 113°51'0 0.0
2015-Jan-22 03:13N 22°32' E 113°51'3 4.3
2015-Jan-22 02:31N 22°29' E 113°52'10 8.8
2015-Jan-22 01:24N 22°21' E 113°57'8 9.9
2015-Jan-22 00:33N 22°18' E 114°06'10 9.8
2015-Jan-21 23:29N 22°10' E 114°13'6 7.1
2015-Jan-21 22:37N 22°09' E 114°20'0 6.7
2015-Jan-21 22:33N 22°09' E 114°20'8 7.6
2015-Jan-21 21:33N 22°13' E 114°27'7 6.5
2015-Jan-21 20:25N 22°20' E 114°30'20 5.1
2015-Jan-21 16:33N 22°34' E 114°16'0 0.3
2015-Jan-21 15:29N 22°34' E 114°16'0 0.0
2015-Jan-21 14:23N 22°34' E 114°16'0 0.0
2015-Jan-21 13:11N 22°34' E 114°16'0 0.0
2015-Jan-21 11:29N 22°34' E 114°16'0 0.1
2015-Jan-21 10:23N 22°34' E 114°16'0 0.1
2015-Jan-21 09:29N 22°34' E 114°16'0 0.0
2015-Jan-21 06:26N 22°34' E 114°16'0 0.0
2015-Jan-21 05:05N 22°34' E 114°16'0 0.2
2015-Jan-21 04:33N 22°34' E 114°16'2411.0
2015-Jan-21 02:24N 22°20' E 114°36'33215.1
2015-Jan-20 04:27N 24°60' E 119°55'28515.8
2015-Jan-19 10:26N 29°08' E 122°32'1415.6
2015-Jan-19 09:34N 29°21' E 122°32'1716.6
2015-Jan-19 08:33N 29°38' E 122°30'1616.0
2015-Jan-19 07:32N 29°48' E 122°15'1212.2
2015-Jan-19 06:33N 29°55' E 122°04'1210.3
2015-Jan-19 05:22N 29°57' E 121°50'0 0.0
2015-Jan-19 02:19N 29°57' E 121°50'0 0.0
2015-Jan-19 01:28N 29°57' E 121°50'0 0.0
2015-Jan-18 23:10N 29°57' E 121°50'0 0.0
2015-Jan-18 22:16N 29°57' E 121°50'0 0.0
2015-Jan-18 21:10N 29°57' E 121°50'0 0.0
2015-Jan-18 20:04N 29°57' E 121°50'0 0.0
2015-Jan-18 19:31N 29°57' E 121°50'3 2.9
2015-Jan-18 18:33N 29°58' E 121°53'1211.8
2015-Jan-18 17:34N 29°56' E 122°06'1211.9
2015-Jan-18 16:33N 29°47' E 122°16'8 8.1
2015-Jan-18 15:33N 29°44' E 122°25'7 7.3
2015-Jan-18 14:33N 29°45' E 122°33'8 7.5
2015-Jan-18 13:33N 29°49' E 122°40'7 7.3
2015-Jan-18 12:33N 29°54' E 122°47'15 7.5
2015-Jan-18 10:32N 30°06' E 122°58'14 7.2
2015-Jan-18 08:32N 30°20' E 122°57'8 8.2
2015-Jan-18 07:33N 30°25' E 122°49'9 9.2
2015-Jan-18 06:32N 30°29' E 122°39'1010.5
2015-Jan-18 05:33N 30°31' E 122°28'1211.7
2015-Jan-18 04:33N 30°33' E 122°14'10 8.8
2015-Jan-18 03:25N 30°37' E 122°04'0 0.0
2015-Jan-18 02:22N 30°37' E 122°04'0 0.0
2015-Jan-18 01:28N 30°37' E 122°04'0 0.0
2015-Jan-18 00:31N 30°37' E 122°04'0 0.0
2015-Jan-17 23:31N 30°37' E 122°04'0 0.0
2015-Jan-17 22:31N 30°37' E 122°04'0 0.0
2015-Jan-17 21:31N 30°37' E 122°04'0 0.0
2015-Jan-17 20:28N 30°37' E 122°04'0 0.0
2015-Jan-17 19:31N 30°37' E 122°04'0 0.0
2015-Jan-17 18:28N 30°37' E 122°04'0 0.0
2015-Jan-17 17:31N 30°37' E 122°04'0 0.0
2015-Jan-17 16:31N 30°37' E 122°04'0 0.0
2015-Jan-17 15:31N 30°37' E 122°04'0 0.0
2015-Jan-17 13:25N 30°37' E 122°04'0 0.0
2015-Jan-17 12:16N 30°37' E 122°04'0 0.0
2015-Jan-17 11:22N 30°37' E 122°04'0 0.0
2015-Jan-17 10:28N 30°37' E 122°04'  
Track history (hours):
 
Tides and Currents Weather Stations Pressure Air Temp Water Temp Dewpoint Dewpoint Depression Visibility Wind Speed Wind Dir Waves Ship Positions

Zim Chicago

Last reported at 2015-Jan-27 10:23 UTC. Time now 2015-Jan-29 00:16 UTC.
Position N 01°48' E 102°32'.

Length 334 m; draft 11.4 m.

Type: Cargo ship. MMSI: 636014223.

Date/timePositionNaut miles runAvg speedWind from/ knotsBaromVisibWave heightAir tempDewpointWater temp
2015-Jan-27 10:23N 01°48' E 102°32'1312.8
2015-Jan-27 09:22N 01°42' E 102°44'7012.0
2015-Jan-27 03:33N 01°09' E 103°45'1414.5
2015-Jan-27 02:33N 01°15' E 103°59'1616.1
2015-Jan-27 01:33N 01°18' E 104°15'  
2015-Jan-23 15:33N 22°05' E 114°21'11 1.9
2015-Jan-23 09:31N 22°10' E 114°10'0 0.0
2015-Jan-23 08:07N 22°10' E 114°10'0 0.0
2015-Jan-23 06:25N 22°10' E 114°10'0 0.0
2015-Jan-23 04:25N 22°10' E 114°10'3 2.9
2015-Jan-23 03:29N 22°13' E 114°10'1110.8
2015-Jan-23 02:28N 22°21' E 114°02'1010.6
2015-Jan-23 01:33N 22°26' E 113°53'7 6.8
2015-Jan-23 00:33N 22°32' E 113°51'0 0.1
2015-Jan-22 23:19N 22°32' E 113°51'0 0.0
2015-Jan-22 22:13N 22°32' E 113°51'0 0.0
2015-Jan-22 18:25N 22°32' E 113°51'0 0.0
2015-Jan-22 14:31N 22°32' E 113°51'0 0.0
2015-Jan-22 13:25N 22°32' E 113°51'0 0.0
2015-Jan-22 12:07N 22°32' E 113°51'0 0.0
2015-Jan-22 11:32N 22°32' E 113°51'0 0.0
2015-Jan-22 10:25N 22°32' E 113°51'0 0.0
2015-Jan-22 08:13N 22°32' E 113°51'0 0.0
2015-Jan-22 07:25N 22°32' E 113°51'0 0.0
2015-Jan-22 06:31N 22°32' E 113°51'0 0.0
2015-Jan-22 04:31N 22°32' E 113°51'0 0.0
2015-Jan-22 03:13N 22°32' E 113°51'3 4.3
2015-Jan-22 02:31N 22°29' E 113°52'10 8.8
2015-Jan-22 01:24N 22°21' E 113°57'8 9.9
2015-Jan-22 00:33N 22°18' E 114°06'10 9.8
2015-Jan-21 23:29N 22°10' E 114°13'6 7.1
2015-Jan-21 22:37N 22°09' E 114°20'0 6.7
2015-Jan-21 22:33N 22°09' E 114°20'8 7.6
2015-Jan-21 21:33N 22°13' E 114°27'7 6.5
2015-Jan-21 20:25N 22°20' E 114°30'20 5.1
2015-Jan-21 16:33N 22°34' E 114°16'0 0.3
2015-Jan-21 15:29N 22°34' E 114°16'0 0.0
2015-Jan-21 14:23N 22°34' E 114°16'0 0.0
2015-Jan-21 13:11N 22°34' E 114°16'0 0.0
2015-Jan-21 11:29N 22°34' E 114°16'0 0.1
2015-Jan-21 10:23N 22°34' E 114°16'0 0.1
2015-Jan-21 09:29N 22°34' E 114°16'0 0.0
2015-Jan-21 06:26N 22°34' E 114°16'0 0.0
2015-Jan-21 05:05N 22°34' E 114°16'0 0.2
2015-Jan-21 04:33N 22°34' E 114°16'2411.0
2015-Jan-21 02:24N 22°20' E 114°36'33215.1
2015-Jan-20 04:27N 24°60' E 119°55'28515.8
2015-Jan-19 10:26N 29°08' E 122°32'1415.6
2015-Jan-19 09:34N 29°21' E 122°32'1716.6
2015-Jan-19 08:33N 29°38' E 122°30'1616.0
2015-Jan-19 07:32N 29°48' E 122°15'1212.2
2015-Jan-19 06:33N 29°55' E 122°04'1210.3
2015-Jan-19 05:22N 29°57' E 121°50'0 0.0
2015-Jan-19 02:19N 29°57' E 121°50'0 0.0
2015-Jan-19 01:28N 29°57' E 121°50'0 0.0
2015-Jan-18 23:10N 29°57' E 121°50'0 0.0
2015-Jan-18 22:16N 29°57' E 121°50'0 0.0
2015-Jan-18 21:10N 29°57' E 121°50'0 0.0
2015-Jan-18 20:04N 29°57' E 121°50'0 0.0
2015-Jan-18 19:31N 29°57' E 121°50'3 2.9
2015-Jan-18 18:33N 29°58' E 121°53'1211.8
2015-Jan-18 17:34N 29°56' E 122°06'1211.9
2015-Jan-18 16:33N 29°47' E 122°16'8 8.1
2015-Jan-18 15:33N 29°44' E 122°25'7 7.3
2015-Jan-18 14:33N 29°45' E 122°33'8 7.5
2015-Jan-18 13:33N 29°49' E 122°40'7 7.3
2015-Jan-18 12:33N 29°54' E 122°47'15 7.5
2015-Jan-18 10:32N 30°06' E 122°58'14 7.2
2015-Jan-18 08:32N 30°20' E 122°57'8 8.2
2015-Jan-18 07:33N 30°25' E 122°49'9 9.2
2015-Jan-18 06:32N 30°29' E 122°39'1010.5
2015-Jan-18 05:33N 30°31' E 122°28'1211.7
2015-Jan-18 04:33N 30°33' E 122°14'10 8.8
2015-Jan-18 03:25N 30°37' E 122°04'0 0.0
2015-Jan-18 02:22N 30°37' E 122°04'0 0.0
2015-Jan-18 01:28N 30°37' E 122°04'0 0.0
2015-Jan-18 00:31N 30°37' E 122°04'0 0.0
2015-Jan-17 23:31N 30°37' E 122°04'0 0.0
2015-Jan-17 22:31N 30°37' E 122°04'0 0.0
2015-Jan-17 21:31N 30°37' E 122°04'0 0.0
2015-Jan-17 20:28N 30°37' E 122°04'0 0.0
2015-Jan-17 19:31N 30°37' E 122°04'0 0.0
2015-Jan-17 18:28N 30°37' E 122°04'0 0.0
2015-Jan-17 17:31N 30°37' E 122°04'0 0.0
2015-Jan-17 16:31N 30°37' E 122°04'0 0.0
2015-Jan-17 15:31N 30°37' E 122°04'0 0.0
2015-Jan-17 13:25N 30°37' E 122°04'0 0.0
2015-Jan-17 12:16N 30°37' E 122°04'0 0.0
2015-Jan-17 11:22N 30°37' E 122°04'0 0.0
2015-Jan-17 10:28N 30°37' E 122°04'  

Dump ship's entire track history